sensor_id;sensor_type;location;lat;lon;timestamp;temperature;humidity
56268;DHT22;42175;46.930;9.532;2023-08-06T00:00:22;22.50;58.50
56268;DHT22;42175;46.930;9.532;2023-08-06T00:02:48;22.50;58.50
56268;DHT22;42175;46.930;9.532;2023-08-06T00:05:15;22.50;58.60
56268;DHT22;42175;46.930;9.532;2023-08-06T00:07:46;22.50;58.50
56268;DHT22;42175;46.930;9.532;2023-08-06T00:10:12;22.50;58.50
56268;DHT22;42175;46.930;9.532;2023-08-06T00:12:38;22.50;58.50
56268;DHT22;42175;46.930;9.532;2023-08-06T00:15:04;22.60;58.50
56268;DHT22;42175;46.930;9.532;2023-08-06T00:17:30;22.50;58.60
56268;DHT22;42175;46.930;9.532;2023-08-06T00:19:55;22.50;58.60
56268;DHT22;42175;46.930;9.532;2023-08-06T00:22:21;22.60;58.60
56268;DHT22;42175;46.930;9.532;2023-08-06T00:24:47;22.50;58.60
56268;DHT22;42175;46.930;9.532;2023-08-06T00:27:13;22.50;58.60
56268;DHT22;42175;46.930;9.532;2023-08-06T00:29:38;22.50;58.60
56268;DHT22;42175;46.930;9.532;2023-08-06T00:32:04;22.50;58.60
56268;DHT22;42175;46.930;9.532;2023-08-06T00:34:30;22.50;58.60
56268;DHT22;42175;46.930;9.532;2023-08-06T00:36:56;22.50;58.60
56268;DHT22;42175;46.930;9.532;2023-08-06T00:39:21;22.50;58.60
56268;DHT22;42175;46.930;9.532;2023-08-06T00:41:47;22.50;58.60
56268;DHT22;42175;46.930;9.532;2023-08-06T00:44:13;22.50;58.60
56268;DHT22;42175;46.930;9.532;2023-08-06T00:46:38;22.50;58.60
56268;DHT22;42175;46.930;9.532;2023-08-06T00:49:05;22.50;58.60
56268;DHT22;42175;46.930;9.532;2023-08-06T00:51:32;22.60;58.70
56268;DHT22;42175;46.930;9.532;2023-08-06T00:53:58;22.50;58.60
56268;DHT22;42175;46.930;9.532;2023-08-06T00:56:24;22.50;58.60
56268;DHT22;42175;46.930;9.532;2023-08-06T00:58:51;22.50;58.60
56268;DHT22;42175;46.930;9.532;2023-08-06T01:01:17;22.50;58.70
56268;DHT22;42175;46.930;9.532;2023-08-06T01:03:43;22.50;58.60
56268;DHT22;42175;46.930;9.532;2023-08-06T01:06:09;22.50;58.60
56268;DHT22;42175;46.930;9.532;2023-08-06T01:11:38;22.50;58.60
56268;DHT22;42175;46.930;9.532;2023-08-06T01:17:20;22.50;58.60
56268;DHT22;42175;46.930;9.532;2023-08-06T01:19:46;22.50;58.60
56268;DHT22;42175;46.930;9.532;2023-08-06T01:22:12;22.50;58.60
56268;DHT22;42175;46.930;9.532;2023-08-06T01:24:37;22.50;58.60
56268;DHT22;42175;46.930;9.532;2023-08-06T01:27:28;22.50;58.60
56268;DHT22;42175;46.930;9.532;2023-08-06T01:30:17;22.50;58.60
56268;DHT22;42175;46.930;9.532;2023-08-06T01:32:44;22.50;58.50
56268;DHT22;42175;46.930;9.532;2023-08-06T01:35:13;22.50;58.60
56268;DHT22;42175;46.930;9.532;2023-08-06T01:37:40;22.50;58.60
56268;DHT22;42175;46.930;9.532;2023-08-06T01:40:13;22.50;58.50
56268;DHT22;42175;46.930;9.532;2023-08-06T01:42:40;22.50;58.50
56268;DHT22;42175;46.930;9.532;2023-08-06T01:45:09;22.50;58.50
56268;DHT22;42175;46.930;9.532;2023-08-06T01:47:36;22.50;58.40
56268;DHT22;42175;46.930;9.532;2023-08-06T01:50:02;22.50;58.50
56268;DHT22;42175;46.930;9.532;2023-08-06T01:52:28;22.50;58.40
56268;DHT22;42175;46.930;9.532;2023-08-06T01:54:54;22.50;58.40
56268;DHT22;42175;46.930;9.532;2023-08-06T01:57:20;22.50;58.40
56268;DHT22;42175;46.930;9.532;2023-08-06T01:59:46;22.50;58.40
56268;DHT22;42175;46.930;9.532;2023-08-06T02:02:12;22.50;58.40
56268;DHT22;42175;46.930;9.532;2023-08-06T02:04:38;22.50;58.40
56268;DHT22;42175;46.930;9.532;2023-08-06T02:07:04;22.50;58.40
56268;DHT22;42175;46.930;9.532;2023-08-06T02:09:30;22.50;58.40
56268;DHT22;42175;46.930;9.532;2023-08-06T02:11:55;22.50;58.40
56268;DHT22;42175;46.930;9.532;2023-08-06T02:14:21;22.50;58.40
56268;DHT22;42175;46.930;9.532;2023-08-06T02:16:47;22.50;58.40
56268;DHT22;42175;46.930;9.532;2023-08-06T02:19:12;22.50;58.40
56268;DHT22;42175;46.930;9.532;2023-08-06T02:21:38;22.50;58.40
56268;DHT22;42175;46.930;9.532;2023-08-06T02:24:04;22.50;58.40
56268;DHT22;42175;46.930;9.532;2023-08-06T02:26:30;22.50;58.40
56268;DHT22;42175;46.930;9.532;2023-08-06T02:28:56;22.50;58.40
56268;DHT22;42175;46.930;9.532;2023-08-06T02:31:21;22.50;58.40
56268;DHT22;42175;46.930;9.532;2023-08-06T02:33:47;22.50;58.40
56268;DHT22;42175;46.930;9.532;2023-08-06T02:36:13;22.50;58.50
56268;DHT22;42175;46.930;9.532;2023-08-06T02:38:39;22.50;58.50
56268;DHT22;42175;46.930;9.532;2023-08-06T02:41:05;22.50;58.60
56268;DHT22;42175;46.930;9.532;2023-08-06T02:43:31;22.50;58.50
56268;DHT22;42175;46.930;9.532;2023-08-06T02:46:01;22.50;58.50
56268;DHT22;42175;46.930;9.532;2023-08-06T02:48:27;22.50;58.40
56268;DHT22;42175;46.930;9.532;2023-08-06T02:50:56;22.50;58.40
56268;DHT22;42175;46.930;9.532;2023-08-06T02:53:22;22.50;58.40
56268;DHT22;42175;46.930;9.532;2023-08-06T02:55:48;22.50;58.30
56268;DHT22;42175;46.930;9.532;2023-08-06T02:58:15;22.50;58.30
56268;DHT22;42175;46.930;9.532;2023-08-06T03:00:41;22.50;58.30
56268;DHT22;42175;46.930;9.532;2023-08-06T03:03:07;22.50;58.30
56268;DHT22;42175;46.930;9.532;2023-08-06T03:05:33;22.50;58.30
56268;DHT22;42175;46.930;9.532;2023-08-06T03:07:59;22.50;58.30
56268;DHT22;42175;46.930;9.532;2023-08-06T03:10:24;22.50;58.30
56268;DHT22;42175;46.930;9.532;2023-08-06T03:12:50;22.50;58.30
56268;DHT22;42175;46.930;9.532;2023-08-06T03:15:16;22.50;58.40
56268;DHT22;42175;46.930;9.532;2023-08-06T03:17:41;22.50;58.40
56268;DHT22;42175;46.930;9.532;2023-08-06T03:20:07;22.50;58.30
56268;DHT22;42175;46.930;9.532;2023-08-06T03:22:33;22.50;58.30
56268;DHT22;42175;46.930;9.532;2023-08-06T03:24:59;22.50;58.30
56268;DHT22;42175;46.930;9.532;2023-08-06T03:27:25;22.50;58.30
56268;DHT22;42175;46.930;9.532;2023-08-06T03:29:51;22.50;58.30
56268;DHT22;42175;46.930;9.532;2023-08-06T03:32:16;22.50;58.30
56268;DHT22;42175;46.930;9.532;2023-08-06T03:34:42;22.50;58.80
56268;DHT22;42175;46.930;9.532;2023-08-06T03:37:08;22.50;58.20
56268;DHT22;42175;46.930;9.532;2023-08-06T03:39:34;22.50;58.20
56268;DHT22;42175;46.930;9.532;2023-08-06T03:42:00;22.50;58.20
56268;DHT22;42175;46.930;9.532;2023-08-06T03:44:25;22.50;58.10
56268;DHT22;42175;46.930;9.532;2023-08-06T03:46:52;22.50;58.10
56268;DHT22;42175;46.930;9.532;2023-08-06T03:49:18;22.50;58.00
56268;DHT22;42175;46.930;9.532;2023-08-06T03:51:44;22.50;58.00
56268;DHT22;42175;46.930;9.532;2023-08-06T03:54:09;22.50;58.00
56268;DHT22;42175;46.930;9.532;2023-08-06T03:56:35;22.50;58.00
56268;DHT22;42175;46.930;9.532;2023-08-06T03:59:01;22.40;58.00
56268;DHT22;42175;46.930;9.532;2023-08-06T04:01:27;22.50;58.00
56268;DHT22;42175;46.930;9.532;2023-08-06T04:03:53;22.50;58.00
56268;DHT22;42175;46.930;9.532;2023-08-06T04:06:18;22.50;58.00
56268;DHT22;42175;46.930;9.532;2023-08-06T04:08:44;22.40;57.90
56268;DHT22;42175;46.930;9.532;2023-08-06T04:11:10;22.50;57.90
56268;DHT22;42175;46.930;9.532;2023-08-06T04:13:35;22.40;57.90
56268;DHT22;42175;46.930;9.532;2023-08-06T04:16:02;22.50;57.90
56268;DHT22;42175;46.930;9.532;2023-08-06T04:18:28;22.40;57.80
56268;DHT22;42175;46.930;9.532;2023-08-06T04:20:54;22.40;57.80
56268;DHT22;42175;46.930;9.532;2023-08-06T04:23:21;22.40;57.70
56268;DHT22;42175;46.930;9.532;2023-08-06T04:25:46;22.40;57.70
56268;DHT22;42175;46.930;9.532;2023-08-06T04:28:12;22.40;57.70
56268;DHT22;42175;46.930;9.532;2023-08-06T04:30:38;22.40;57.70
56268;DHT22;42175;46.930;9.532;2023-08-06T04:33:04;22.50;57.80
56268;DHT22;42175;46.930;9.532;2023-08-06T04:35:29;22.40;57.70
56268;DHT22;42175;46.930;9.532;2023-08-06T04:37:55;22.40;57.70
56268;DHT22;42175;46.930;9.532;2023-08-06T04:40:21;22.40;57.70
56268;DHT22;42175;46.930;9.532;2023-08-06T04:42:47;22.40;57.70
56268;DHT22;42175;46.930;9.532;2023-08-06T04:45:12;22.40;57.60
56268;DHT22;42175;46.930;9.532;2023-08-06T04:47:38;22.40;57.60
56268;DHT22;42175;46.930;9.532;2023-08-06T04:50:04;22.40;57.60
56268;DHT22;42175;46.930;9.532;2023-08-06T04:52:30;22.40;57.50
56268;DHT22;42175;46.930;9.532;2023-08-06T04:54:57;22.40;57.50
56268;DHT22;42175;46.930;9.532;2023-08-06T04:57:23;22.40;57.50
56268;DHT22;42175;46.930;9.532;2023-08-06T04:59:49;22.40;57.50
56268;DHT22;42175;46.930;9.532;2023-08-06T05:02:15;22.40;57.40
56268;DHT22;42175;46.930;9.532;2023-08-06T05:04:41;22.40;57.40
56268;DHT22;42175;46.930;9.532;2023-08-06T05:07:07;22.40;57.40
56268;DHT22;42175;46.930;9.532;2023-08-06T05:09:33;22.40;57.40
56268;DHT22;42175;46.930;9.532;2023-08-06T05:12:01;22.40;57.40
56268;DHT22;42175;46.930;9.532;2023-08-06T05:14:28;22.40;57.40
56268;DHT22;42175;46.930;9.532;2023-08-06T05:16:53;22.40;57.30
56268;DHT22;42175;46.930;9.532;2023-08-06T05:19:19;22.40;57.30
56268;DHT22;42175;46.930;9.532;2023-08-06T05:21:44;22.40;57.30
56268;DHT22;42175;46.930;9.532;2023-08-06T05:24:10;22.40;57.20
56268;DHT22;42175;46.930;9.532;2023-08-06T05:26:36;22.40;57.20
56268;DHT22;42175;46.930;9.532;2023-08-06T05:29:01;22.40;57.10
56268;DHT22;42175;46.930;9.532;2023-08-06T05:31:27;22.40;57.00
56268;DHT22;42175;46.930;9.532;2023-08-06T05:33:54;22.40;57.10
56268;DHT22;42175;46.930;9.532;2023-08-06T05:36:20;22.40;57.10
56268;DHT22;42175;46.930;9.532;2023-08-06T05:38:47;22.40;57.00
56268;DHT22;42175;46.930;9.532;2023-08-06T05:41:13;22.40;57.00
56268;DHT22;42175;46.930;9.532;2023-08-06T05:43:39;22.40;57.00
56268;DHT22;42175;46.930;9.532;2023-08-06T05:46:05;22.40;57.00
56268;DHT22;42175;46.930;9.532;2023-08-06T05:48:30;22.40;57.00
56268;DHT22;42175;46.930;9.532;2023-08-06T05:50:57;22.40;57.00
56268;DHT22;42175;46.930;9.532;2023-08-06T05:53:24;22.40;57.10
56268;DHT22;42175;46.930;9.532;2023-08-06T05:55:50;22.40;57.10
56268;DHT22;42175;46.930;9.532;2023-08-06T05:58:16;22.40;57.10
56268;DHT22;42175;46.930;9.532;2023-08-06T06:00:41;22.40;57.10
56268;DHT22;42175;46.930;9.532;2023-08-06T06:03:07;22.40;57.10
56268;DHT22;42175;46.930;9.532;2023-08-06T06:05:33;22.40;57.10
56268;DHT22;42175;46.930;9.532;2023-08-06T06:07:58;22.40;57.10
56268;DHT22;42175;46.930;9.532;2023-08-06T06:10:24;22.40;57.20
56268;DHT22;42175;46.930;9.532;2023-08-06T06:12:50;22.40;57.20
56268;DHT22;42175;46.930;9.532;2023-08-06T06:15:15;22.40;57.30
56268;DHT22;42175;46.930;9.532;2023-08-06T06:17:41;22.40;57.20
56268;DHT22;42175;46.930;9.532;2023-08-06T06:20:07;22.40;57.20
56268;DHT22;42175;46.930;9.532;2023-08-06T06:22:33;22.40;57.20
56268;DHT22;42175;46.930;9.532;2023-08-06T06:24:58;22.40;57.20
56268;DHT22;42175;46.930;9.532;2023-08-06T06:27:24;22.40;57.20
56268;DHT22;42175;46.930;9.532;2023-08-06T06:29:50;22.40;57.20
56268;DHT22;42175;46.930;9.532;2023-08-06T06:32:18;22.40;57.20
56268;DHT22;42175;46.930;9.532;2023-08-06T06:34:43;22.40;57.20
56268;DHT22;42175;46.930;9.532;2023-08-06T06:37:09;22.40;57.20
56268;DHT22;42175;46.930;9.532;2023-08-06T06:39:35;22.40;57.20
56268;DHT22;42175;46.930;9.532;2023-08-06T06:42:00;22.40;57.10
56268;DHT22;42175;46.930;9.532;2023-08-06T06:44:26;22.40;57.20
56268;DHT22;42175;46.930;9.532;2023-08-06T06:46:52;22.40;57.20
56268;DHT22;42175;46.930;9.532;2023-08-06T06:49:17;22.40;57.20
56268;DHT22;42175;46.930;9.532;2023-08-06T06:51:43;22.40;57.30
56268;DHT22;42175;46.930;9.532;2023-08-06T06:54:09;22.40;57.30
56268;DHT22;42175;46.930;9.532;2023-08-06T06:56:34;22.40;57.40
56268;DHT22;42175;46.930;9.532;2023-08-06T06:59:00;22.30;57.10
56268;DHT22;42175;46.930;9.532;2023-08-06T07:01:26;22.20;57.50
56268;DHT22;42175;46.930;9.532;2023-08-06T07:03:51;22.30;57.60
56268;DHT22;42175;46.930;9.532;2023-08-06T07:06:17;22.30;57.70
56268;DHT22;42175;46.930;9.532;2023-08-06T07:08:44;22.30;57.60
56268;DHT22;42175;46.930;9.532;2023-08-06T07:11:10;22.30;57.70
56268;DHT22;42175;46.930;9.532;2023-08-06T07:13:36;22.30;57.60
56268;DHT22;42175;46.930;9.532;2023-08-06T07:16:02;22.30;57.60
56268;DHT22;42175;46.930;9.532;2023-08-06T07:18:28;22.40;57.60
56268;DHT22;42175;46.930;9.532;2023-08-06T07:20:54;22.40;57.70
56268;DHT22;42175;46.930;9.532;2023-08-06T07:23:21;22.30;57.60
56268;DHT22;42175;46.930;9.532;2023-08-06T07:25:48;22.40;57.70
56268;DHT22;42175;46.930;9.532;2023-08-06T07:28:14;22.40;57.60
56268;DHT22;42175;46.930;9.532;2023-08-06T07:30:41;22.40;57.70
56268;DHT22;42175;46.930;9.532;2023-08-06T07:33:07;22.30;57.60
56268;DHT22;42175;46.930;9.532;2023-08-06T07:35:33;22.40;57.60
56268;DHT22;42175;46.930;9.532;2023-08-06T07:37:59;22.40;57.60
56268;DHT22;42175;46.930;9.532;2023-08-06T07:40:24;22.40;57.60
56268;DHT22;42175;46.930;9.532;2023-08-06T07:42:50;22.40;57.60
56268;DHT22;42175;46.930;9.532;2023-08-06T07:45:16;22.30;57.40
56268;DHT22;42175;46.930;9.532;2023-08-06T07:47:41;22.30;57.50
56268;DHT22;42175;46.930;9.532;2023-08-06T07:50:09;22.40;57.50
56268;DHT22;42175;46.930;9.532;2023-08-06T07:52:35;22.40;57.40
56268;DHT22;42175;46.930;9.532;2023-08-06T07:55:02;22.30;57.40
56268;DHT22;42175;46.930;9.532;2023-08-06T07:57:33;22.30;57.40
56268;DHT22;42175;46.930;9.532;2023-08-06T08:00:00;22.30;57.30
56268;DHT22;42175;46.930;9.532;2023-08-06T08:02:27;22.30;57.30
56268;DHT22;42175;46.930;9.532;2023-08-06T08:04:52;22.30;57.90
56268;DHT22;42175;46.930;9.532;2023-08-06T08:07:19;22.40;57.30
56268;DHT22;42175;46.930;9.532;2023-08-06T08:09:45;22.40;57.90
56268;DHT22;42175;46.930;9.532;2023-08-06T08:12:10;22.40;57.30
56268;DHT22;42175;46.930;9.532;2023-08-06T08:14:36;22.40;57.40
56268;DHT22;42175;46.930;9.532;2023-08-06T08:17:05;22.40;57.40
56268;DHT22;42175;46.930;9.532;2023-08-06T08:19:32;22.40;57.40
56268;DHT22;42175;46.930;9.532;2023-08-06T08:21:58;22.40;57.40
56268;DHT22;42175;46.930;9.532;2023-08-06T08:24:24;22.40;57.40
56268;DHT22;42175;46.930;9.532;2023-08-06T08:26:51;22.40;57.20
56268;DHT22;42175;46.930;9.532;2023-08-06T08:29:17;22.40;57.30
56268;DHT22;42175;46.930;9.532;2023-08-06T08:31:43;22.40;57.10
56268;DHT22;42175;46.930;9.532;2023-08-06T08:34:10;22.40;57.20
56268;DHT22;42175;46.930;9.532;2023-08-06T08:36:35;22.40;57.20
56268;DHT22;42175;46.930;9.532;2023-08-06T08:39:02;22.40;57.30
56268;DHT22;42175;46.930;9.532;2023-08-06T08:41:31;22.40;57.40
56268;DHT22;42175;46.930;9.532;2023-08-06T08:43:58;22.40;57.30
56268;DHT22;42175;46.930;9.532;2023-08-06T08:46:27;22.50;57.50
56268;DHT22;42175;46.930;9.532;2023-08-06T08:48:55;22.40;57.40
56268;DHT22;42175;46.930;9.532;2023-08-06T08:51:21;22.40;57.30
56268;DHT22;42175;46.930;9.532;2023-08-06T08:53:50;22.40;57.40
56268;DHT22;42175;46.930;9.532;2023-08-06T08:56:19;22.40;57.40
56268;DHT22;42175;46.930;9.532;2023-08-06T08:58:45;22.40;57.30
56268;DHT22;42175;46.930;9.532;2023-08-06T09:01:11;22.40;57.30
56268;DHT22;42175;46.930;9.532;2023-08-06T09:03:37;22.40;57.20
56268;DHT22;42175;46.930;9.532;2023-08-06T09:06:05;22.40;56.20
56268;DHT22;42175;46.930;9.532;2023-08-06T09:08:36;22.30;54.80
56268;DHT22;42175;46.930;9.532;2023-08-06T09:11:05;22.20;53.40
56268;DHT22;42175;46.930;9.532;2023-08-06T09:13:37;22.00;55.20
56268;DHT22;42175;46.930;9.532;2023-08-06T09:16:04;22.10;53.90
56268;DHT22;42175;46.930;9.532;2023-08-06T09:18:30;22.00;52.70
56268;DHT22;42175;46.930;9.532;2023-08-06T09:20:57;21.90;54.10
56268;DHT22;42175;46.930;9.532;2023-08-06T09:23:30;21.90;57.10
56268;DHT22;42175;46.930;9.532;2023-08-06T09:25:57;21.90;53.10
56268;DHT22;42175;46.930;9.532;2023-08-06T09:28:22;21.70;53.60
56268;DHT22;42175;46.930;9.532;2023-08-06T09:30:50;21.70;53.10
56268;DHT22;42175;46.930;9.532;2023-08-06T09:33:19;21.70;54.60
56268;DHT22;42175;46.930;9.532;2023-08-06T09:35:46;21.70;54.20
56268;DHT22;42175;46.930;9.532;2023-08-06T09:38:12;21.70;54.60
56268;DHT22;42175;46.930;9.532;2023-08-06T09:40:39;21.60;53.60
56268;DHT22;42175;46.930;9.532;2023-08-06T09:43:05;21.50;51.50
56268;DHT22;42175;46.930;9.532;2023-08-06T09:45:33;21.50;52.40
56268;DHT22;42175;46.930;9.532;2023-08-06T09:48:01;21.50;52.70
56268;DHT22;42175;46.930;9.532;2023-08-06T09:50:35;21.40;53.70
56268;DHT22;42175;46.930;9.532;2023-08-06T09:53:04;21.40;54.00
56268;DHT22;42175;46.930;9.532;2023-08-06T09:55:32;21.30;54.80
56268;DHT22;42175;46.930;9.532;2023-08-06T09:57:59;21.40;55.40
56268;DHT22;42175;46.930;9.532;2023-08-06T10:00:24;21.30;56.10
56268;DHT22;42175;46.930;9.532;2023-08-06T10:02:53;21.20;57.40
56268;DHT22;42175;46.930;9.532;2023-08-06T10:05:24;21.20;55.40
56268;DHT22;42175;46.930;9.532;2023-08-06T10:07:51;21.30;55.40
56268;DHT22;42175;46.930;9.532;2023-08-06T10:10:17;21.20;54.60
56268;DHT22;42175;46.930;9.532;2023-08-06T10:12:53;21.10;54.10
56268;DHT22;42175;46.930;9.532;2023-08-06T10:15:24;21.20;56.20
56268;DHT22;42175;46.930;9.532;2023-08-06T10:17:52;21.20;56.10
56268;DHT22;42175;46.930;9.532;2023-08-06T10:20:20;21.30;56.20
56268;DHT22;42175;46.930;9.532;2023-08-06T10:23:03;21.40;56.20
56268;DHT22;42175;46.930;9.532;2023-08-06T10:25:39;21.40;55.10
56268;DHT22;42175;46.930;9.532;2023-08-06T10:28:12;21.30;55.10
56268;DHT22;42175;46.930;9.532;2023-08-06T10:30:47;21.30;54.50
56268;DHT22;42175;46.930;9.532;2023-08-06T10:33:13;21.30;52.70
56268;DHT22;42175;46.930;9.532;2023-08-06T10:35:47;21.30;52.60
56268;DHT22;42175;46.930;9.532;2023-08-06T10:38:17;21.40;54.00
56268;DHT22;42175;46.930;9.532;2023-08-06T10:43:35;21.60;54.70
56268;DHT22;42175;46.930;9.532;2023-08-06T10:46:11;21.70;54.80
56268;DHT22;42175;46.930;9.532;2023-08-06T10:48:39;21.70;55.00
56268;DHT22;42175;46.930;9.532;2023-08-06T10:51:10;21.80;55.00
56268;DHT22;42175;46.930;9.532;2023-08-06T10:53:37;21.90;55.00
56268;DHT22;42175;46.930;9.532;2023-08-06T10:56:12;21.90;54.90
56268;DHT22;42175;46.930;9.532;2023-08-06T10:58:40;21.90;55.00
56268;DHT22;42175;46.930;9.532;2023-08-06T11:01:06;21.90;54.80
56268;DHT22;42175;46.930;9.532;2023-08-06T11:03:33;21.90;55.00
56268;DHT22;42175;46.930;9.532;2023-08-06T11:06:00;22.00;55.00
56268;DHT22;42175;46.930;9.532;2023-08-06T11:08:26;22.00;55.00
56268;DHT22;42175;46.930;9.532;2023-08-06T11:10:53;22.10;55.10
56268;DHT22;42175;46.930;9.532;2023-08-06T11:13:20;22.10;55.10
56268;DHT22;42175;46.930;9.532;2023-08-06T11:15:46;22.10;55.10
56268;DHT22;42175;46.930;9.532;2023-08-06T11:18:12;22.10;55.10
56268;DHT22;42175;46.930;9.532;2023-08-06T11:20:38;22.10;55.10
56268;DHT22;42175;46.930;9.532;2023-08-06T11:23:05;22.10;55.10
56268;DHT22;42175;46.930;9.532;2023-08-06T11:25:35;22.10;55.10
56268;DHT22;42175;46.930;9.532;2023-08-06T11:28:01;22.10;55.10
56268;DHT22;42175;46.930;9.532;2023-08-06T11:30:27;22.10;55.20
56268;DHT22;42175;46.930;9.532;2023-08-06T11:32:53;22.10;55.20
56268;DHT22;42175;46.930;9.532;2023-08-06T11:35:18;22.10;55.10
56268;DHT22;42175;46.930;9.532;2023-08-06T11:37:45;22.10;55.10
56268;DHT22;42175;46.930;9.532;2023-08-06T11:40:11;22.10;54.90
56268;DHT22;42175;46.930;9.532;2023-08-06T11:42:38;22.10;55.00
56268;DHT22;42175;46.930;9.532;2023-08-06T11:45:04;22.10;55.00
56268;DHT22;42175;46.930;9.532;2023-08-06T11:47:30;22.20;54.80
56268;DHT22;42175;46.930;9.532;2023-08-06T11:49:57;22.10;54.80
56268;DHT22;42175;46.930;9.532;2023-08-06T11:52:24;22.20;54.70
56268;DHT22;42175;46.930;9.532;2023-08-06T11:55:09;22.20;54.70
56268;DHT22;42175;46.930;9.532;2023-08-06T11:57:44;22.20;54.70
56268;DHT22;42175;46.930;9.532;2023-08-06T12:00:11;22.20;54.30
56268;DHT22;42175;46.930;9.532;2023-08-06T12:02:41;22.20;54.30
56268;DHT22;42175;46.930;9.532;2023-08-06T12:07:39;22.20;54.40
56268;DHT22;42175;46.930;9.532;2023-08-06T12:10:05;22.20;54.30
56268;DHT22;42175;46.930;9.532;2023-08-06T12:12:31;22.20;55.30
56268;DHT22;42175;46.930;9.532;2023-08-06T12:14:57;22.10;56.40
56268;DHT22;42175;46.930;9.532;2023-08-06T12:17:24;22.10;57.20
56268;DHT22;42175;46.930;9.532;2023-08-06T12:19:50;22.00;57.30
56268;DHT22;42175;46.930;9.532;2023-08-06T12:22:16;22.00;55.80
56268;DHT22;42175;46.930;9.532;2023-08-06T12:24:46;22.00;55.20
56268;DHT22;42175;46.930;9.532;2023-08-06T12:27:12;22.00;56.00
56268;DHT22;42175;46.930;9.532;2023-08-06T12:29:43;22.00;56.40
56268;DHT22;42175;46.930;9.532;2023-08-06T12:32:13;22.00;56.00
56268;DHT22;42175;46.930;9.532;2023-08-06T12:34:39;22.00;55.00
56268;DHT22;42175;46.930;9.532;2023-08-06T12:37:06;22.00;56.20
56268;DHT22;42175;46.930;9.532;2023-08-06T12:39:35;22.00;56.00
56268;DHT22;42175;46.930;9.532;2023-08-06T12:42:03;22.00;54.70
56268;DHT22;42175;46.930;9.532;2023-08-06T12:44:29;22.00;55.00
56268;DHT22;42175;46.930;9.532;2023-08-06T12:46:56;21.90;55.20
56268;DHT22;42175;46.930;9.532;2023-08-06T12:49:22;21.90;55.90
56268;DHT22;42175;46.930;9.532;2023-08-06T12:51:52;21.90;56.50
56268;DHT22;42175;46.930;9.532;2023-08-06T12:54:19;22.00;55.00
56268;DHT22;42175;46.930;9.532;2023-08-06T12:56:46;21.90;56.40
56268;DHT22;42175;46.930;9.532;2023-08-06T12:59:14;21.90;57.10
56268;DHT22;42175;46.930;9.532;2023-08-06T13:01:40;21.90;57.00
56268;DHT22;42175;46.930;9.532;2023-08-06T13:04:06;21.90;56.90
56268;DHT22;42175;46.930;9.532;2023-08-06T13:06:32;21.90;57.80
56268;DHT22;42175;46.930;9.532;2023-08-06T13:09:09;22.00;58.30
56268;DHT22;42175;46.930;9.532;2023-08-06T13:11:36;21.90;58.30
56268;DHT22;42175;46.930;9.532;2023-08-06T13:14:08;21.90;56.80
56268;DHT22;42175;46.930;9.532;2023-08-06T13:16:39;21.90;57.90
56268;DHT22;42175;46.930;9.532;2023-08-06T13:19:06;22.00;59.10
56268;DHT22;42175;46.930;9.532;2023-08-06T13:24:01;21.90;57.50
56268;DHT22;42175;46.930;9.532;2023-08-06T13:26:28;22.00;58.10
56268;DHT22;42175;46.930;9.532;2023-08-06T13:28:56;21.90;55.60
56268;DHT22;42175;46.930;9.532;2023-08-06T13:31:22;22.00;56.50
56268;DHT22;42175;46.930;9.532;2023-08-06T13:33:47;22.00;59.00
56268;DHT22;42175;46.930;9.532;2023-08-06T13:36:18;22.00;56.60
56268;DHT22;42175;46.930;9.532;2023-08-06T13:38:44;22.00;56.10
56268;DHT22;42175;46.930;9.532;2023-08-06T13:41:09;21.90;57.60
56268;DHT22;42175;46.930;9.532;2023-08-06T13:43:35;21.90;56.70
56268;DHT22;42175;46.930;9.532;2023-08-06T13:46:00;22.00;58.30
56268;DHT22;42175;46.930;9.532;2023-08-06T13:48:26;22.00;57.80
56268;DHT22;42175;46.930;9.532;2023-08-06T13:50:52;22.00;58.90
56268;DHT22;42175;46.930;9.532;2023-08-06T13:53:18;21.90;59.30
56268;DHT22;42175;46.930;9.532;2023-08-06T13:55:43;22.00;59.10
56268;DHT22;42175;46.930;9.532;2023-08-06T13:58:09;22.00;58.80
56268;DHT22;42175;46.930;9.532;2023-08-06T14:00:38;22.00;58.90
56268;DHT22;42175;46.930;9.532;2023-08-06T14:03:03;22.00;58.40
56268;DHT22;42175;46.930;9.532;2023-08-06T14:05:29;22.00;58.10
56268;DHT22;42175;46.930;9.532;2023-08-06T14:07:55;22.00;58.30
56268;DHT22;42175;46.930;9.532;2023-08-06T14:10:20;22.00;59.70
56268;DHT22;42175;46.930;9.532;2023-08-06T14:12:46;22.00;59.80
56268;DHT22;42175;46.930;9.532;2023-08-06T14:15:12;22.00;59.60
56268;DHT22;42175;46.930;9.532;2023-08-06T14:17:37;22.00;58.90
56268;DHT22;42175;46.930;9.532;2023-08-06T14:20:04;22.00;58.60
56268;DHT22;42175;46.930;9.532;2023-08-06T14:22:30;22.00;58.90
56268;DHT22;42175;46.930;9.532;2023-08-06T14:24:57;22.00;58.60
56268;DHT22;42175;46.930;9.532;2023-08-06T14:27:23;22.00;58.60
56268;DHT22;42175;46.930;9.532;2023-08-06T14:29:49;22.00;57.50
56268;DHT22;42175;46.930;9.532;2023-08-06T14:32:14;22.00;58.00
56268;DHT22;42175;46.930;9.532;2023-08-06T14:34:43;22.00;58.50
56268;DHT22;42175;46.930;9.532;2023-08-06T14:37:09;22.00;58.10
56268;DHT22;42175;46.930;9.532;2023-08-06T14:39:35;22.00;58.30
56268;DHT22;42175;46.930;9.532;2023-08-06T14:42:00;22.00;57.70
56268;DHT22;42175;46.930;9.532;2023-08-06T14:44:26;22.00;58.30
56268;DHT22;42175;46.930;9.532;2023-08-06T14:46:52;22.00;58.30
56268;DHT22;42175;46.930;9.532;2023-08-06T14:49:17;22.00;57.00
56268;DHT22;42175;46.930;9.532;2023-08-06T14:51:43;22.00;59.20
56268;DHT22;42175;46.930;9.532;2023-08-06T14:54:08;22.00;59.30
56268;DHT22;42175;46.930;9.532;2023-08-06T14:56:34;22.00;59.20
56268;DHT22;42175;46.930;9.532;2023-08-06T14:58:59;22.00;58.90
56268;DHT22;42175;46.930;9.532;2023-08-06T15:01:25;22.00;58.50
56268;DHT22;42175;46.930;9.532;2023-08-06T15:03:51;22.00;57.10
56268;DHT22;42175;46.930;9.532;2023-08-06T15:06:16;22.00;55.10
56268;DHT22;42175;46.930;9.532;2023-08-06T15:08:42;21.80;54.00
56268;DHT22;42175;46.930;9.532;2023-08-06T15:11:10;21.70;55.00
56268;DHT22;42175;46.930;9.532;2023-08-06T15:13:36;21.70;53.80
56268;DHT22;42175;46.930;9.532;2023-08-06T15:16:01;21.50;54.50
56268;DHT22;42175;46.930;9.532;2023-08-06T15:18:27;21.40;53.40
56268;DHT22;42175;46.930;9.532;2023-08-06T15:20:53;21.30;54.60
56268;DHT22;42175;46.930;9.532;2023-08-06T15:23:18;21.30;55.60
56268;DHT22;42175;46.930;9.532;2023-08-06T15:25:45;21.20;55.00
56268;DHT22;42175;46.930;9.532;2023-08-06T15:28:10;21.20;55.00
56268;DHT22;42175;46.930;9.532;2023-08-06T15:30:36;21.20;55.20
56268;DHT22;42175;46.930;9.532;2023-08-06T15:33:02;21.20;57.10
56268;DHT22;42175;46.930;9.532;2023-08-06T15:35:28;21.10;56.10
56268;DHT22;42175;46.930;9.532;2023-08-06T15:37:53;21.10;56.70
56268;DHT22;42175;46.930;9.532;2023-08-06T15:40:19;21.00;56.30